sensor_id;sensor_type;location;lat;lon;timestamp;pressure;altitude;pressure_sealevel;temperature;humidity
84413;BME280;74611;53.106;8.778;2024-03-23T00:55:44;101010.59;;;6.42;83.73
84413;BME280;74611;53.106;8.778;2024-03-23T00:58:09;101004.25;;;6.35;85.07
84413;BME280;74611;53.106;8.778;2024-03-23T01:00:35;100991.84;;;6.43;82.45
84413;BME280;74611;53.106;8.778;2024-03-23T01:03:01;100997.00;;;6.45;82.42
84413;BME280;74611;53.106;8.778;2024-03-23T01:05:27;100982.94;;;6.35;84.35
84413;BME280;74611;53.106;8.778;2024-03-23T01:07:52;100989.25;;;6.34;84.00
84413;BME280;74611;53.106;8.778;2024-03-23T01:10:18;100989.72;;;6.29;84.89
84413;BME280;74611;53.106;8.778;2024-03-23T01:12:43;100981.09;;;6.35;84.75
84413;BME280;74611;53.106;8.778;2024-03-23T01:15:09;100985.91;;;6.32;83.72
84413;BME280;74611;53.106;8.778;2024-03-23T01:17:35;100983.41;;;6.30;83.32
84413;BME280;74611;53.106;8.778;2024-03-23T01:20:00;100971.06;;;6.29;83.09
84413;BME280;74611;53.106;8.778;2024-03-23T01:22:26;100968.78;;;6.34;82.33
84413;BME280;74611;53.106;8.778;2024-03-23T01:24:52;100963.06;;;6.29;83.45
84413;BME280;74611;53.106;8.778;2024-03-23T01:27:18;100958.53;;;6.22;83.53
84413;BME280;74611;53.106;8.778;2024-03-23T01:29:43;100958.53;;;6.22;82.78
84413;BME280;74611;53.106;8.778;2024-03-23T01:32:09;100948.19;;;6.19;83.26
84413;BME280;74611;53.106;8.778;2024-03-23T01:34:34;100940.66;;;6.14;83.70
84413;BME280;74611;53.106;8.778;2024-03-23T01:37:00;100938.06;;;6.22;82.88
84413;BME280;74611;53.106;8.778;2024-03-23T01:39:26;100946.03;;;6.22;82.66
84413;BME280;74611;53.106;8.778;2024-03-23T01:41:51;100938.75;;;6.24;82.37
84413;BME280;74611;53.106;8.778;2024-03-23T01:44:17;100933.69;;;6.13;85.06
84413;BME280;74611;53.106;8.778;2024-03-23T01:46:43;100929.09;;;6.05;85.67
84413;BME280;74611;53.106;8.778;2024-03-23T01:49:10;100929.94;;;6.06;84.49
84413;BME280;74611;53.106;8.778;2024-03-23T01:51:36;100916.94;;;6.03;85.32
84413;BME280;74611;53.106;8.778;2024-03-23T01:54:03;100915.34;;;6.10;83.78
84413;BME280;74611;53.106;8.778;2024-03-23T01:56:33;100922.72;;;5.98;85.46
84413;BME280;74611;53.106;8.778;2024-03-23T01:59:04;100923.09;;;6.03;82.81
84413;BME280;74611;53.106;8.778;2024-03-23T02:01:31;100923.94;;;6.04;83.53
84413;BME280;74611;53.106;8.778;2024-03-23T02:03:56;100916.34;;;5.91;86.06
84413;BME280;74611;53.106;8.778;2024-03-23T02:06:22;100914.66;;;5.90;86.26
84413;BME280;74611;53.106;8.778;2024-03-23T02:08:49;100910.31;;;5.89;85.21
84413;BME280;74611;53.106;8.778;2024-03-23T02:11:15;100916.41;;;5.99;82.57
84413;BME280;74611;53.106;8.778;2024-03-23T02:13:40;100907.13;;;6.03;83.02
84413;BME280;74611;53.106;8.778;2024-03-23T02:16:06;100905.22;;;5.96;83.54
84413;BME280;74611;53.106;8.778;2024-03-23T02:18:35;100910.72;;;5.94;83.44
84413;BME280;74611;53.106;8.778;2024-03-23T02:21:01;100912.16;;;5.89;84.63
84413;BME280;74611;53.106;8.778;2024-03-23T02:23:26;100909.13;;;5.84;86.12
84413;BME280;74611;53.106;8.778;2024-03-23T02:25:52;100914.00;;;5.88;83.86
84413;BME280;74611;53.106;8.778;2024-03-23T02:28:20;100901.88;;;5.94;82.94
84413;BME280;74611;53.106;8.778;2024-03-23T02:30:48;100900.84;;;5.87;84.75
84413;BME280;74611;53.106;8.778;2024-03-23T02:33:14;100890.34;;;5.85;83.17
84413;BME280;74611;53.106;8.778;2024-03-23T02:35:39;100892.69;;;5.88;82.94
84413;BME280;74611;53.106;8.778;2024-03-23T02:38:05;100883.19;;;5.86;84.74
84413;BME280;74611;53.106;8.778;2024-03-23T02:40:30;100886.03;;;5.84;83.15
84413;BME280;74611;53.106;8.778;2024-03-23T02:42:56;100885.56;;;5.89;82.70
84413;BME280;74611;53.106;8.778;2024-03-23T02:45:21;100887.22;;;5.90;82.47
84413;BME280;74611;53.106;8.778;2024-03-23T02:47:47;100879.16;;;5.82;83.63
84413;BME280;74611;53.106;8.778;2024-03-23T02:50:17;100869.47;;;5.81;83.80
84413;BME280;74611;53.106;8.778;2024-03-23T02:52:43;100873.13;;;5.80;83.05
84413;BME280;74611;53.106;8.778;2024-03-23T02:55:08;100864.16;;;5.81;82.79
84413;BME280;74611;53.106;8.778;2024-03-23T02:57:34;100864.75;;;5.84;82.67
84413;BME280;74611;53.106;8.778;2024-03-23T03:00:00;100866.00;;;5.80;82.68
84413;BME280;74611;53.106;8.778;2024-03-23T03:02:25;100861.66;;;5.79;82.53
84413;BME280;74611;53.106;8.778;2024-03-23T03:04:51;100855.94;;;5.74;84.60
84413;BME280;74611;53.106;8.778;2024-03-23T03:07:16;100853.28;;;5.74;84.19
84413;BME280;74611;53.106;8.778;2024-03-23T03:09:42;100855.44;;;5.71;83.63
84413;BME280;74611;53.106;8.778;2024-03-23T03:12:07;100850.97;;;5.71;83.62
84413;BME280;74611;53.106;8.778;2024-03-23T03:14:34;100846.16;;;5.75;83.18
84413;BME280;74611;53.106;8.778;2024-03-23T03:16:59;100844.63;;;5.72;85.87
84413;BME280;74611;53.106;8.778;2024-03-23T03:19:25;100841.28;;;5.70;85.18
84413;BME280;74611;53.106;8.778;2024-03-23T03:21:51;100834.78;;;5.65;84.09
84413;BME280;74611;53.106;8.778;2024-03-23T03:24:17;100836.97;;;5.69;84.91
84413;BME280;74611;53.106;8.778;2024-03-23T03:26:45;100840.84;;;5.57;87.04
84413;BME280;74611;53.106;8.778;2024-03-23T03:29:11;100849.38;;;5.61;84.40
84413;BME280;74611;53.106;8.778;2024-03-23T03:31:37;100834.38;;;5.60;85.42
84413;BME280;74611;53.106;8.778;2024-03-23T03:34:03;100828.16;;;5.69;82.64
84413;BME280;74611;53.106;8.778;2024-03-23T03:36:28;100832.97;;;5.65;83.10
84413;BME280;74611;53.106;8.778;2024-03-23T03:38:54;100832.13;;;5.65;84.23
84413;BME280;74611;53.106;8.778;2024-03-23T03:41:20;100826.72;;;5.57;84.85
84413;BME280;74611;53.106;8.778;2024-03-23T03:43:45;100821.94;;;5.60;83.78
84413;BME280;74611;53.106;8.778;2024-03-23T03:46:11;100822.38;;;5.56;84.66
84413;BME280;74611;53.106;8.778;2024-03-23T03:48:37;100805.38;;;5.49;83.97
84413;BME280;74611;53.106;8.778;2024-03-23T03:51:03;100780.00;;;5.54;83.58
84413;BME280;74611;53.106;8.778;2024-03-23T03:53:29;100764.13;;;5.45;87.04
84413;BME280;74611;53.106;8.778;2024-03-23T03:55:55;100772.72;;;5.39;85.47
84413;BME280;74611;53.106;8.778;2024-03-23T03:58:21;100783.75;;;5.44;85.50
84413;BME280;74611;53.106;8.778;2024-03-23T04:00:46;100791.50;;;5.37;87.17
84413;BME280;74611;53.106;8.778;2024-03-23T04:03:12;100800.50;;;5.44;83.67
84413;BME280;74611;53.106;8.778;2024-03-23T04:05:37;100801.50;;;5.43;83.91
84413;BME280;74611;53.106;8.778;2024-03-23T04:08:04;100809.47;;;5.43;83.19
84413;BME280;74611;53.106;8.778;2024-03-23T04:10:30;100812.13;;;5.43;83.78
84413;BME280;74611;53.106;8.778;2024-03-23T04:12:55;100811.00;;;5.46;82.96
84413;BME280;74611;53.106;8.778;2024-03-23T04:15:21;100806.66;;;5.45;84.42
84413;BME280;74611;53.106;8.778;2024-03-23T04:17:46;100806.94;;;5.42;85.83
84413;BME280;74611;53.106;8.778;2024-03-23T04:20:12;100804.28;;;5.42;83.44
84413;BME280;74611;53.106;8.778;2024-03-23T04:22:42;100799.75;;;5.34;86.97
84413;BME280;74611;53.106;8.778;2024-03-23T04:25:08;100804.63;;;5.39;83.72
84413;BME280;74611;53.106;8.778;2024-03-23T04:27:33;100811.91;;;5.37;84.35
84413;BME280;74611;53.106;8.778;2024-03-23T04:29:59;100797.78;;;5.36;86.82
84413;BME280;74611;53.106;8.778;2024-03-23T04:32:27;100791.78;;;5.34;82.96
84413;BME280;74611;53.106;8.778;2024-03-23T04:34:53;100793.97;;;5.39;82.98
84413;BME280;74611;53.106;8.778;2024-03-23T04:37:20;100789.13;;;5.34;85.59
84413;BME280;74611;53.106;8.778;2024-03-23T04:39:46;100785.94;;;5.30;85.43
84413;BME280;74611;53.106;8.778;2024-03-23T04:42:11;100786.31;;;5.35;83.64
84413;BME280;74611;53.106;8.778;2024-03-23T04:44:37;100781.16;;;5.34;85.22
84413;BME280;74611;53.106;8.778;2024-03-23T04:47:03;100779.47;;;5.33;84.17
84413;BME280;74611;53.106;8.778;2024-03-23T04:49:28;100785.09;;;5.30;85.20
84413;BME280;74611;53.106;8.778;2024-03-23T04:51:54;100780.63;;;5.30;85.48
84413;BME280;74611;53.106;8.778;2024-03-23T04:54:19;100774.31;;;5.31;83.25
84413;BME280;74611;53.106;8.778;2024-03-23T04:56:45;100774.31;;;5.31;84.63
84413;BME280;74611;53.106;8.778;2024-03-23T04:59:11;100777.41;;;5.27;83.14
84413;BME280;74611;53.106;8.778;2024-03-23T05:01:36;100771.94;;;5.28;82.72
84413;BME280;74611;53.106;8.778;2024-03-23T05:04:04;100777.56;;;5.25;85.39
84413;BME280;74611;53.106;8.778;2024-03-23T05:06:30;100767.63;;;5.27;83.13
84413;BME280;74611;53.106;8.778;2024-03-23T05:08:56;100774.06;;;5.25;83.36
84413;BME280;74611;53.106;8.778;2024-03-23T05:11:21;100757.00;;;5.27;82.94
84413;BME280;74611;53.106;8.778;2024-03-23T05:13:47;100751.28;;;5.22;85.42
84413;BME280;74611;53.106;8.778;2024-03-23T05:16:13;100755.75;;;5.22;82.92
84413;BME280;74611;53.106;8.778;2024-03-23T05:18:38;100756.59;;;5.22;83.90
84413;BME280;74611;53.106;8.778;2024-03-23T05:21:04;100746.75;;;5.15;85.38
84413;BME280;74611;53.106;8.778;2024-03-23T05:23:29;100751.06;;;5.16;84.30
84413;BME280;74611;53.106;8.778;2024-03-23T05:25:55;100747.50;;;5.07;85.22
84413;BME280;74611;53.106;8.778;2024-03-23T05:28:21;100755.91;;;5.03;86.61
84413;BME280;74611;53.106;8.778;2024-03-23T05:30:54;100748.34;;;5.08;84.27
84413;BME280;74611;53.106;8.778;2024-03-23T05:33:20;100754.72;;;5.15;82.51
84413;BME280;74611;53.106;8.778;2024-03-23T05:35:47;100756.16;;;5.09;84.60
84413;BME280;74611;53.106;8.778;2024-03-23T05:38:21;100745.69;;;5.08;82.88
84413;BME280;74611;53.106;8.778;2024-03-23T05:40:59;100744.59;;;5.01;84.82
84413;BME280;74611;53.106;8.778;2024-03-23T05:43:25;100738.22;;;4.94;85.36
84413;BME280;74611;53.106;8.778;2024-03-23T05:45:58;100745.06;;;4.96;85.39
84413;BME280;74611;53.106;8.778;2024-03-23T05:48:25;100740.88;;;4.94;83.96
84413;BME280;74611;53.106;8.778;2024-03-23T05:50:51;100745.22;;;4.95;83.68
84413;BME280;74611;53.106;8.778;2024-03-23T05:53:17;100750.00;;;4.91;86.11
84413;BME280;74611;53.106;8.778;2024-03-23T05:55:42;100753.63;;;4.90;84.36
84413;BME280;74611;53.106;8.778;2024-03-23T05:58:08;100751.66;;;4.92;84.75
84413;BME280;74611;53.106;8.778;2024-03-23T06:00:34;100745.44;;;4.84;86.83
84413;BME280;74611;53.106;8.778;2024-03-23T06:03:00;100743.31;;;4.87;85.71
84413;BME280;74611;53.106;8.778;2024-03-23T06:05:26;100746.88;;;4.78;85.03
84413;BME280;74611;53.106;8.778;2024-03-23T06:07:51;100747.94;;;4.85;84.50
84413;BME280;74611;53.106;8.778;2024-03-23T06:10:17;100740.72;;;4.78;87.44
84413;BME280;74611;53.106;8.778;2024-03-23T06:12:43;100744.06;;;4.80;83.58
84413;BME280;74611;53.106;8.778;2024-03-23T06:15:09;100735.25;;;4.79;87.84
84413;BME280;74611;53.106;8.778;2024-03-23T06:17:36;100741.41;;;4.80;83.79
84413;BME280;74611;53.106;8.778;2024-03-23T06:20:02;100744.50;;;4.75;86.98
84413;BME280;74611;53.106;8.778;2024-03-23T06:22:28;100734.13;;;4.82;86.32
84413;BME280;74611;53.106;8.778;2024-03-23T06:24:53;100732.75;;;4.78;84.12
84413;BME280;74611;53.106;8.778;2024-03-23T06:27:19;100731.47;;;4.82;85.48
84413;BME280;74611;53.106;8.778;2024-03-23T06:29:45;100731.06;;;4.77;86.12
84413;BME280;74611;53.106;8.778;2024-03-23T06:32:10;100733.59;;;4.78;85.93
84413;BME280;74611;53.106;8.778;2024-03-23T06:34:36;100736.09;;;4.80;85.50
84413;BME280;74611;53.106;8.778;2024-03-23T06:37:01;100731.75;;;4.79;84.14
84413;BME280;74611;53.106;8.778;2024-03-23T06:39:28;100729.50;;;4.84;85.69
84413;BME280;74611;53.106;8.778;2024-03-23T06:41:54;100726.16;;;4.82;83.15
84413;BME280;74611;53.106;8.778;2024-03-23T06:44:20;100725.41;;;4.89;87.40
84413;BME280;74611;53.106;8.778;2024-03-23T06:46:49;100723.56;;;4.90;86.27
84413;BME280;74611;53.106;8.778;2024-03-23T06:49:15;100731.88;;;4.87;83.32
84413;BME280;74611;53.106;8.778;2024-03-23T06:51:41;100727.38;;;4.87;82.77
84413;BME280;74611;53.106;8.778;2024-03-23T06:54:06;100722.75;;;4.89;83.42
84413;BME280;74611;53.106;8.778;2024-03-23T06:56:32;100725.09;;;4.92;83.37
84413;BME280;74611;53.106;8.778;2024-03-23T06:58:58;100722.44;;;4.92;82.45
84413;BME280;74611;53.106;8.778;2024-03-23T07:01:23;100724.66;;;4.97;83.80
84413;BME280;74611;53.106;8.778;2024-03-23T07:03:49;100725.16;;;5.00;84.26
84413;BME280;74611;53.106;8.778;2024-03-23T07:06:15;100732.47;;;4.98;82.96
84413;BME280;74611;53.106;8.778;2024-03-23T07:08:40;100729.22;;;5.04;83.76
84413;BME280;74611;53.106;8.778;2024-03-23T07:11:06;100732.56;;;5.06;82.79
84413;BME280;74611;53.106;8.778;2024-03-23T07:13:31;100724.81;;;5.13;85.46
84413;BME280;74611;53.106;8.778;2024-03-23T07:15:58;100726.47;;;5.14;84.51
84413;BME280;74611;53.106;8.778;2024-03-23T07:18:25;100723.88;;;5.22;83.95
84413;BME280;74611;53.106;8.778;2024-03-23T07:20:58;100726.63;;;5.12;83.52
84413;BME280;74611;53.106;8.778;2024-03-23T07:23:24;100721.53;;;5.19;83.20
84413;BME280;74611;53.106;8.778;2024-03-23T07:26:00;100715.38;;;5.36;84.64
84413;BME280;74611;53.106;8.778;2024-03-23T07:28:26;100723.19;;;5.38;83.60
84413;BME280;74611;53.106;8.778;2024-03-23T07:31:05;100723.78;;;5.49;83.73
84413;BME280;74611;53.106;8.778;2024-03-23T07:33:32;100722.63;;;5.52;83.07
84413;BME280;74611;53.106;8.778;2024-03-23T07:35:58;100720.19;;;5.58;82.29
84413;BME280;74611;53.106;8.778;2024-03-23T07:38:26;100721.25;;;5.65;81.71
84413;BME280;74611;53.106;8.778;2024-03-23T07:40:52;100715.84;;;5.83;82.80
84413;BME280;74611;53.106;8.778;2024-03-23T07:43:22;100721.91;;;5.85;82.20
84413;BME280;74611;53.106;8.778;2024-03-23T07:45:53;100717.59;;;5.92;82.57
84413;BME280;74611;53.106;8.778;2024-03-23T07:48:21;100716.00;;;5.99;81.75
84413;BME280;74611;53.106;8.778;2024-03-23T07:51:00;100726.53;;;6.08;81.75
84413;BME280;74611;53.106;8.778;2024-03-23T07:53:27;100722.09;;;6.17;82.85
84413;BME280;74611;53.106;8.778;2024-03-23T07:56:09;100723.44;;;6.21;82.66
84413;BME280;74611;53.106;8.778;2024-03-23T07:58:38;100718.31;;;6.36;82.13
84413;BME280;74611;53.106;8.778;2024-03-23T08:03:33;100722.88;;;6.43;82.18
84413;BME280;74611;53.106;8.778;2024-03-23T08:08:38;100721.91;;;6.60;81.88
84413;BME280;74611;53.106;8.778;2024-03-23T08:11:04;100718.97;;;6.71;81.64
84413;BME280;74611;53.106;8.778;2024-03-23T08:13:30;100712.13;;;6.77;83.05
84413;BME280;74611;53.106;8.778;2024-03-23T08:16:00;100714.13;;;6.75;81.27
84413;BME280;74611;53.106;8.778;2024-03-23T08:18:26;100708.66;;;6.84;80.49
84413;BME280;74611;53.106;8.778;2024-03-23T08:20:59;100712.66;;;6.89;80.88
84413;BME280;74611;53.106;8.778;2024-03-23T08:23:26;100708.97;;;6.90;81.26
84413;BME280;74611;53.106;8.778;2024-03-23T08:25:56;100713.50;;;6.97;80.81
84413;BME280;74611;53.106;8.778;2024-03-23T08:28:22;100702.84;;;6.97;80.55
84413;BME280;74611;53.106;8.778;2024-03-23T08:30:48;100705.69;;;7.12;80.63
84413;BME280;74611;53.106;8.778;2024-03-23T08:33:15;100707.38;;;7.21;79.88
84413;BME280;74611;53.106;8.778;2024-03-23T08:35:41;100714.19;;;7.23;80.32
84413;BME280;74611;53.106;8.778;2024-03-23T08:38:07;100715.88;;;7.32;79.47
84413;BME280;74611;53.106;8.778;2024-03-23T08:40:32;100706.84;;;7.33;80.49
84413;BME280;74611;53.106;8.778;2024-03-23T08:42:58;100701.72;;;7.48;81.07
84413;BME280;74611;53.106;8.778;2024-03-23T08:45:27;100706.16;;;7.63;79.96
84413;BME280;74611;53.106;8.778;2024-03-23T08:47:52;100699.00;;;7.80;80.09
84413;BME280;74611;53.106;8.778;2024-03-23T08:50:18;100701.47;;;7.82;79.83
84413;BME280;74611;53.106;8.778;2024-03-23T08:52:44;100698.13;;;7.88;79.69
84413;BME280;74611;53.106;8.778;2024-03-23T08:55:09;100705.94;;;7.97;81.42
84413;BME280;74611;53.106;8.778;2024-03-23T08:57:35;100700.56;;;8.05;79.84
84413;BME280;74611;53.106;8.778;2024-03-23T09:00:02;100691.06;;;8.11;80.48
84413;BME280;74611;53.106;8.778;2024-03-23T09:02:28;100701.22;;;8.15;79.86
84413;BME280;74611;53.106;8.778;2024-03-23T09:04:53;100695.66;;;8.25;79.50
84413;BME280;74611;53.106;8.778;2024-03-23T09:07:19;100701.97;;;8.48;80.39
84413;BME280;74611;53.106;8.778;2024-03-23T09:09:44;100696.19;;;8.67;76.93
84413;BME280;74611;53.106;8.778;2024-03-23T09:12:10;100694.56;;;8.81;77.70
84413;BME280;74611;53.106;8.778;2024-03-23T09:14:35;100688.81;;;8.69;74.64
84413;BME280;74611;53.106;8.778;2024-03-23T09:17:01;100685.50;;;8.90;74.22
84413;BME280;74611;53.106;8.778;2024-03-23T09:19:28;100678.03;;;9.08;78.49
84413;BME280;74611;53.106;8.778;2024-03-23T09:21:54;100691.69;;;9.13;77.22
84413;BME280;74611;53.106;8.778;2024-03-23T09:24:20;100676.69;;;9.27;79.80
84413;BME280;74611;53.106;8.778;2024-03-23T09:26:46;100676.88;;;9.25;77.44
84413;BME280;74611;53.106;8.778;2024-03-23T09:29:12;100686.63;;;9.41;78.78
84413;BME280;74611;53.106;8.778;2024-03-23T09:31:37;100691.22;;;9.47;77.57
84413;BME280;74611;53.106;8.778;2024-03-23T09:34:04;100682.66;;;9.51;78.42
84413;BME280;74611;53.106;8.778;2024-03-23T09:36:29;100686.09;;;9.60;78.27
84413;BME280;74611;53.106;8.778;2024-03-23T09:38:55;100686.84;;;9.68;77.17
84413;BME280;74611;53.106;8.778;2024-03-23T09:41:20;100686.59;;;9.63;73.13
84413;BME280;74611;53.106;8.778;2024-03-23T09:43:46;100689.81;;;9.88;76.85
84413;BME280;74611;53.106;8.778;2024-03-23T09:46:14;100681.25;;;10.07;78.18
84413;BME280;74611;53.106;8.778;2024-03-23T09:48:40;100683.66;;;10.02;75.73
84413;BME280;74611;53.106;8.778;2024-03-23T09:51:07;100691.41;;;9.97;74.21
84413;BME280;74611;53.106;8.778;2024-03-23T09:53:34;100687.56;;;10.14;75.17
84413;BME280;74611;53.106;8.778;2024-03-23T09:56:00;100697.81;;;10.25;76.27
84413;BME280;74611;53.106;8.778;2024-03-23T09:58:26;100689.31;;;10.22;70.46
84413;BME280;74611;53.106;8.778;2024-03-23T10:00:51;100689.03;;;10.17;77.83
84413;BME280;74611;53.106;8.778;2024-03-23T10:03:17;100697.53;;;10.35;73.79
84413;BME280;74611;53.106;8.778;2024-03-23T10:05:43;100691.38;;;10.55;75.86
84413;BME280;74611;53.106;8.778;2024-03-23T10:10:44;100692.03;;;10.57;73.83
84413;BME280;74611;53.106;8.778;2024-03-23T10:13:10;100700.34;;;10.63;68.47
84413;BME280;74611;53.106;8.778;2024-03-23T10:15:39;100693.44;;;10.89;75.72
84413;BME280;74611;53.106;8.778;2024-03-23T10:18:18;100691.78;;;10.88;74.90
84413;BME280;74611;53.106;8.778;2024-03-23T10:20:52;100702.13;;;11.12;75.67
84413;BME280;74611;53.106;8.778;2024-03-23T10:23:25;100705.75;;;11.05;71.60
84413;BME280;74611;53.106;8.778;2024-03-23T10:25:51;100705.59;;;11.06;71.55
84413;BME280;74611;53.106;8.778;2024-03-23T10:28:17;100694.97;;;11.41;76.31
84413;BME280;74611;53.106;8.778;2024-03-23T10:30:42;100699.44;;;11.33;74.23
84413;BME280;74611;53.106;8.778;2024-03-23T10:33:11;100710.06;;;11.20;70.94
84413;BME280;74611;53.106;8.778;2024-03-23T10:35:37;100684.75;;;11.29;72.08
84413;BME280;74611;53.106;8.778;2024-03-23T10:38:05;100687.34;;;11.44;69.82
84413;BME280;74611;53.106;8.778;2024-03-23T10:40:34;100682.06;;;11.29;66.35
84413;BME280;74611;53.106;8.778;2024-03-23T10:43:00;100681.97;;;11.44;72.32
84413;BME280;74611;53.106;8.778;2024-03-23T10:45:26;100679.41;;;11.57;74.17
84413;BME280;74611;53.106;8.778;2024-03-23T10:47:51;100683.69;;;11.52;74.05
84413;BME280;74611;53.106;8.778;2024-03-23T10:50:17;100677.28;;;11.53;74.64
84413;BME280;74611;53.106;8.778;2024-03-23T10:52:47;100672.84;;;11.66;74.23
84413;BME280;74611;53.106;8.778;2024-03-23T10:55:15;100677.97;;;11.55;74.82
84413;BME280;74611;53.106;8.778;2024-03-23T10:57:52;100685.44;;;11.38;69.23
84413;BME280;74611;53.106;8.778;2024-03-23T11:00:18;100667.97;;;11.49;73.32
84413;BME280;74611;53.106;8.778;2024-03-23T11:02:44;100675.97;;;11.42;71.73
84413;BME280;74611;53.106;8.778;2024-03-23T11:05:29;100657.88;;;11.51;73.87
84413;BME280;74611;53.106;8.778;2024-03-23T11:07:55;100676.91;;;11.56;67.53
84413;BME280;74611;53.106;8.778;2024-03-23T11:10:28;100665.50;;;11.75;73.25
84413;BME280;74611;53.106;8.778;2024-03-23T11:12:56;100681.66;;;11.54;70.90
84413;BME280;74611;53.106;8.778;2024-03-23T11:15:21;100675.50;;;11.60;67.87
84413;BME280;74611;53.106;8.778;2024-03-23T11:18:06;100666.31;;;11.48;64.42
84413;BME280;74611;53.106;8.778;2024-03-23T11:20:37;100665.38;;;11.83;72.60
84413;BME280;74611;53.106;8.778;2024-03-23T11:23:04;100668.44;;;11.80;71.30
84413;BME280;74611;53.106;8.778;2024-03-23T11:25:30;100653.63;;;11.63;66.48
84413;BME280;74611;53.106;8.778;2024-03-23T11:27:57;100666.69;;;11.93;72.30
84413;BME280;74611;53.106;8.778;2024-03-23T11:30:27;100661.47;;;12.20;69.65
84413;BME280;74611;53.106;8.778;2024-03-23T11:32:57;100665.94;;;12.53;73.63
84413;BME280;74611;53.106;8.778;2024-03-23T11:35:33;100665.13;;;12.59;70.09
84413;BME280;74611;53.106;8.778;2024-03-23T11:40:32;100671.38;;;12.73;69.35
84413;BME280;74611;53.106;8.778;2024-03-23T11:43:03;100657.97;;;12.93;72.16
84413;BME280;74611;53.106;8.778;2024-03-23T11:45:31;100670.72;;;12.64;65.76
84413;BME280;74611;53.106;8.778;2024-03-23T11:48:03;100661.91;;;12.97;73.43
84413;BME280;74611;53.106;8.778;2024-03-23T11:50:30;100677.22;;;12.76;64.15
84413;BME280;74611;53.106;8.778;2024-03-23T11:55:52;100658.41;;;12.90;64.19
84413;BME280;74611;53.106;8.778;2024-03-23T11:58:23;100647.66;;;13.03;68.00
84413;BME280;74611;53.106;8.778;2024-03-23T12:00:59;100646.66;;;13.10;69.28
84413;BME280;74611;53.106;8.778;2024-03-23T12:03:26;100640.25;;;13.11;70.52
84413;BME280;74611;53.106;8.778;2024-03-23T12:05:55;100644.72;;;12.91;62.68
84413;BME280;74611;53.106;8.778;2024-03-23T12:11:05;100657.97;;;12.93;70.96
84413;BME280;74611;53.106;8.778;2024-03-23T12:13:32;100658.59;;;12.95;71.66
84413;BME280;74611;53.106;8.778;2024-03-23T12:16:09;100663.75;;;12.76;69.93
84413;BME280;74611;53.106;8.778;2024-03-23T12:18:36;100690.75;;;12.49;70.15
84413;BME280;74611;53.106;8.778;2024-03-23T12:21:02;100720.22;;;12.70;70.51
84413;BME280;74611;53.106;8.778;2024-03-23T12:23:28;100720.38;;;12.21;71.51
84413;BME280;74611;53.106;8.778;2024-03-23T12:25:54;100727.56;;;12.14;73.03
84413;BME280;74611;53.106;8.778;2024-03-23T12:28:19;100744.25;;;11.75;68.78
84413;BME280;74611;53.106;8.778;2024-03-23T12:30:45;100719.38;;;11.94;70.94
84413;BME280;74611;53.106;8.778;2024-03-23T12:33:10;100717.53;;;11.67;72.06
84413;BME280;74611;53.106;8.778;2024-03-23T12:35:36;100711.78;;;11.49;71.38
84413;BME280;74611;53.106;8.778;2024-03-23T12:38:03;100698.94;;;11.02;72.83
84413;BME280;74611;53.106;8.778;2024-03-23T12:40:28;100705.28;;;11.37;72.97
84413;BME280;74611;53.106;8.778;2024-03-23T12:42:55;100697.66;;;11.19;70.88
84413;BME280;74611;53.106;8.778;2024-03-23T12:45:24;100713.81;;;11.05;69.03
84413;BME280;74611;53.106;8.778;2024-03-23T12:47:49;100686.47;;;11.16;72.79
84413;BME280;74611;53.106;8.778;2024-03-23T12:50:17;100697.91;;;11.24;72.43
84413;BME280;74611;53.106;8.778;2024-03-23T12:52:43;100684.00;;;11.14;71.67
84413;BME280;74611;53.106;8.778;2024-03-23T12:55:08;100678.19;;;11.11;71.99
84413;BME280;74611;53.106;8.778;2024-03-23T12:57:34;100679.06;;;11.18;71.25
84413;BME280;74611;53.106;8.778;2024-03-23T12:59:59;100682.91;;;11.09;69.85
84413;BME280;74611;53.106;8.778;2024-03-23T13:02:25;100668.59;;;11.23;72.20
84413;BME280;74611;53.106;8.778;2024-03-23T13:04:52;100666.41;;;11.33;70.95
84413;BME280;74611;53.106;8.778;2024-03-23T13:07:18;100667.44;;;11.32;70.50
84413;BME280;74611;53.106;8.778;2024-03-23T13:09:44;100667.16;;;11.27;69.80
84413;BME280;74611;53.106;8.778;2024-03-23T13:12:10;100660.44;;;11.37;71.11
84413;BME280;74611;53.106;8.778;2024-03-23T13:14:38;100669.28;;;11.80;63.84
84413;BME280;74611;53.106;8.778;2024-03-23T13:17:03;100672.22;;;11.64;69.13
84413;BME280;74611;53.106;8.778;2024-03-23T13:19:29;100650.88;;;11.77;70.87
84413;BME280;74611;53.106;8.778;2024-03-23T13:22:00;100646.34;;;11.78;70.39
84413;BME280;74611;53.106;8.778;2024-03-23T13:24:27;100634.41;;;11.87;70.85
84413;BME280;74611;53.106;8.778;2024-03-23T13:26:53;100642.16;;;12.09;71.59
84413;BME280;74611;53.106;8.778;2024-03-23T13:29:19;100641.31;;;12.02;70.75
84413;BME280;74611;53.106;8.778;2024-03-23T13:31:49;100665.00;;;11.92;68.32
84413;BME280;74611;53.106;8.778;2024-03-23T13:34:15;100684.41;;;11.88;72.04
84413;BME280;74611;53.106;8.778;2024-03-23T13:36:42;100718.72;;;11.65;68.61
84413;BME280;74611;53.106;8.778;2024-03-23T13:39:08;100706.78;;;11.67;71.28
84413;BME280;74611;53.106;8.778;2024-03-23T13:41:43;100697.38;;;12.12;73.11
84413;BME280;74611;53.106;8.778;2024-03-23T13:44:10;100689.94;;;12.14;72.04
84413;BME280;74611;53.106;8.778;2024-03-23T13:46:37;100693.44;;;12.08;73.02
84413;BME280;74611;53.106;8.778;2024-03-23T13:49:03;100684.22;;;11.89;72.42
84413;BME280;74611;53.106;8.778;2024-03-23T13:51:29;100675.97;;;11.42;73.23
84413;BME280;74611;53.106;8.778;2024-03-23T13:53:55;100687.22;;;11.52;74.14
84413;BME280;74611;53.106;8.778;2024-03-23T13:56:29;100681.75;;;11.39;73.61
84413;BME280;74611;53.106;8.778;2024-03-23T13:58:56;100691.50;;;11.47;72.42
84413;BME280;74611;53.106;8.778;2024-03-23T14:01:22;100691.84;;;11.16;73.09
84413;BME280;74611;53.106;8.778;2024-03-23T14:03:48;100672.03;;;10.39;75.25
84413;BME280;74611;53.106;8.778;2024-03-23T14:06:13;100664.22;;;10.58;75.11